createdAt,value
2022-09-28T00:01:21.312Z,10.86
2022-09-28T00:03:49.936Z,10.86
2022-09-28T00:06:19.653Z,10.96
2022-09-28T00:08:46.730Z,10.94
2022-09-28T00:11:15.623Z,10.40
2022-09-28T00:13:44.083Z,10.42
2022-09-28T00:16:14.216Z,10.38
2022-09-28T00:18:41.651Z,10.40
2022-09-28T00:21:18.752Z,10.47
2022-09-28T00:24:04.471Z,10.54
2022-09-28T00:26:33.401Z,10.54
2022-09-28T00:29:02.223Z,10.64
2022-09-28T00:31:34.357Z,10.65
2022-09-28T00:34:02.460Z,10.57
2022-09-28T00:36:31.096Z,10.57
2022-09-28T00:38:58.973Z,10.61
2022-09-28T00:41:27.991Z,10.58
2022-09-28T00:44:26.470Z,10.51
2022-09-28T00:46:55.869Z,10.28
2022-09-28T00:49:33.505Z,10.19
2022-09-28T00:52:01.737Z,10.38
2022-09-28T00:54:29.081Z,10.32
2022-09-28T00:56:56.326Z,10.31
2022-09-28T00:59:24.900Z,10.33
2022-09-28T01:01:51.602Z,10.02
2022-09-28T01:04:18.322Z,10.09
2022-09-28T01:06:46.911Z,10.05
2022-09-28T01:09:14.805Z,9.87
2022-09-28T01:11:42.497Z,10.09
2022-09-28T01:14:15.665Z,10.09
2022-09-28T01:16:45.082Z,10.09
2022-09-28T01:19:42.750Z,10.06
2022-09-28T01:22:39.936Z,9.92
2022-09-28T01:25:25.200Z,9.80
2022-09-28T01:28:00.129Z,9.67
2022-09-28T01:30:26.961Z,9.63
2022-09-28T01:33:11.060Z,9.68
2022-09-28T01:35:48.301Z,9.80
2022-09-28T01:38:41.034Z,9.80
2022-09-28T01:41:09.468Z,9.91
2022-09-28T01:43:40.324Z,9.87
2022-09-28T01:46:12.485Z,9.66
2022-09-28T01:48:51.316Z,9.76
2022-09-28T01:51:37.017Z,9.62
2022-09-28T01:54:17.802Z,9.62
2022-09-28T01:57:37.147Z,9.29
2022-09-28T02:00:13.136Z,9.54
2022-09-28T02:02:54.018Z,9.68
2022-09-28T02:05:26.642Z,9.70
2022-09-28T02:08:02.680Z,9.62
2022-09-28T02:10:41.550Z,9.67
2022-09-28T02:13:23.130Z,9.39
2022-09-28T02:15:54.408Z,9.37
2022-09-28T02:18:21.094Z,9.43
2022-09-28T02:20:56.911Z,9.45
2022-09-28T02:23:26.646Z,9.50
2022-09-28T02:26:01.096Z,9.28
2022-09-28T02:28:27.925Z,9.13
2022-09-28T02:30:55.427Z,9.28
2022-09-28T02:33:28.305Z,9.37
2022-09-28T02:35:55.845Z,9.30
2022-09-28T02:38:22.489Z,9.26
2022-09-28T02:41:09.224Z,9.32
2022-09-28T02:44:10.277Z,9.17
2022-09-28T02:46:56.431Z,9.22
2022-09-28T02:49:52.295Z,9.19
2022-09-28T02:52:24.751Z,9.07
2022-09-28T02:55:09.632Z,9.14
2022-09-28T02:57:45.171Z,9.10
2022-09-28T03:00:20.786Z,8.88
2022-09-28T03:03:06.265Z,8.82
2022-09-28T03:05:41.872Z,8.73
2022-09-28T03:08:24.177Z,8.88
2022-09-28T03:10:58.901Z,8.92
2022-09-28T03:13:27.105Z,8.76
2022-09-28T03:16:08.301Z,8.55
2022-09-28T03:18:35.099Z,8.77
2022-09-28T03:21:02.997Z,8.72
2022-09-28T03:23:29.619Z,8.88
2022-09-28T03:25:56.365Z,8.82
2022-09-28T03:28:23.335Z,8.66
2022-09-28T03:30:50.615Z,8.84
2022-09-28T03:33:17.329Z,8.58
2022-09-28T03:35:48.100Z,8.74
2022-09-28T03:38:15.043Z,8.60
2022-09-28T03:40:41.704Z,8.64
2022-09-28T03:43:08.621Z,8.41
2022-09-28T03:45:35.395Z,8.57
2022-09-28T03:48:02.091Z,8.59
2022-09-28T03:50:28.949Z,8.71
2022-09-28T03:52:55.944Z,8.67
2022-09-28T03:55:22.657Z,8.73
2022-09-28T03:57:56.169Z,8.79
2022-09-28T04:00:23.189Z,8.74
2022-09-28T04:02:49.875Z,8.71
2022-09-28T04:05:16.499Z,8.74
2022-09-28T04:07:43.361Z,8.51
2022-09-28T04:10:10.122Z,8.72
2022-09-28T04:12:36.790Z,8.46
2022-09-28T04:15:03.646Z,8.51
2022-09-28T04:17:30.301Z,8.59
2022-09-28T04:19:57.871Z,8.58
2022-09-28T04:22:24.867Z,8.66
2022-09-28T04:24:51.563Z,8.56
2022-09-28T04:27:50.392Z,8.64
2022-09-28T04:30:17.582Z,8.63
2022-09-28T04:32:47.024Z,8.74
2022-09-28T04:35:14.512Z,8.69
2022-09-28T04:37:41.545Z,8.43
2022-09-28T04:40:08.764Z,8.45
2022-09-28T04:42:36.491Z,8.40
2022-09-28T04:45:04.845Z,8.56
2022-09-28T04:47:31.495Z,8.57
2022-09-28T04:49:58.209Z,8.66
2022-09-28T04:52:26.744Z,8.68
2022-09-28T04:54:53.387Z,8.65
2022-09-28T04:57:20.069Z,8.55
2022-09-28T04:59:46.777Z,8.66
2022-09-28T05:02:15.126Z,8.79
2022-09-28T05:04:42.241Z,8.95
2022-09-28T05:07:09.384Z,8.99
2022-09-28T05:09:38.429Z,9.07
2022-09-28T05:12:05.404Z,8.99
2022-09-28T05:14:32.041Z,9.10
2022-09-28T05:16:59.098Z,9.12
2022-09-28T05:19:25.773Z,9.01
2022-09-28T05:21:52.563Z,8.73
2022-09-28T05:24:19.383Z,9.15
2022-09-28T05:26:46.052Z,9.13
2022-09-28T05:29:12.937Z,9.21
2022-09-28T05:31:39.680Z,9.20
2022-09-28T05:34:06.504Z,9.40
2022-09-28T05:36:33.257Z,9.48
2022-09-28T05:39:00.138Z,9.76
2022-09-28T05:41:26.880Z,9.89
2022-09-28T05:43:55.103Z,10.35
2022-09-28T05:46:23.762Z,11.82
2022-09-28T05:48:52.626Z,14.02
2022-09-28T05:51:19.441Z,16.09
2022-09-28T05:53:46.280Z,17.12
2022-09-28T05:56:13.006Z,17.70
2022-09-28T05:58:40.149Z,18.34
2022-09-28T06:01:06.940Z,19.70
2022-09-28T06:03:33.628Z,20.97
2022-09-28T06:06:02.491Z,22.04
2022-09-28T06:08:31.758Z,23.39
2022-09-28T06:11:02.586Z,24.21
2022-09-28T06:13:29.463Z,24.18
2022-09-28T06:15:56.221Z,24.33
2022-09-28T06:18:22.883Z,21.14
2022-09-28T06:20:49.625Z,22.90
2022-09-28T06:23:16.355Z,23.90
2022-09-28T06:25:43.144Z,24.74
2022-09-28T06:28:12.146Z,23.84
2022-09-28T06:30:39.950Z,24.39
2022-09-28T06:33:09.974Z,23.25
2022-09-28T06:35:36.681Z,22.13
2022-09-28T06:38:03.509Z,23.01
2022-09-28T06:40:31.124Z,25.52
2022-09-28T06:43:01.963Z,25.89
2022-09-28T06:45:30.185Z,25.38
2022-09-28T06:48:00.791Z,27.21
2022-09-28T06:50:32.338Z,25.87
2022-09-28T06:52:59.965Z,24.55
2022-09-28T06:55:27.142Z,25.22
2022-09-28T06:58:02.312Z,24.83
2022-09-28T07:00:32.997Z,21.58
2022-09-28T07:03:01.796Z,20.66
2022-09-28T07:05:29.627Z,22.93
2022-09-28T07:07:56.890Z,23.88
2022-09-28T07:10:25.567Z,24.52
2022-09-28T07:12:52.530Z,25.98
2022-09-28T07:15:19.779Z,24.56
2022-09-28T07:17:58.971Z,26.72
2022-09-28T07:20:28.973Z,27.29
2022-09-28T07:22:59.236Z,25.99
2022-09-28T07:25:31.626Z,27.22
2022-09-28T07:27:59.801Z,24.63
2022-09-28T07:30:28.239Z,24.46
2022-09-28T07:32:55.716Z,26.40
2022-09-28T07:35:22.782Z,28.31
2022-09-28T07:37:49.478Z,26.76
2022-09-28T07:40:34.988Z,25.32
2022-09-28T07:43:06.471Z,27.00
2022-09-28T07:45:36.825Z,29.27
2022-09-28T07:48:03.693Z,29.87
2022-09-28T07:50:31.513Z,29.66
2022-09-28T07:52:58.743Z,30.64
2022-09-28T07:55:28.189Z,29.34
2022-09-28T07:58:01.812Z,29.21
2022-09-28T08:00:33.972Z,29.89
2022-09-28T08:03:04.091Z,25.65
2022-09-28T08:05:32.122Z,25.71
2022-09-28T08:07:59.770Z,25.77
2022-09-28T08:10:26.721Z,26.26
2022-09-28T08:13:00.694Z,26.26
2022-09-28T08:15:37.029Z,26.31
2022-09-28T08:18:07.323Z,26.26
2022-09-28T08:20:52.727Z,25.20
2022-09-28T08:23:20.431Z,23.54
2022-09-28T08:25:51.429Z,22.46
2022-09-28T08:28:18.488Z,24.24
2022-09-28T08:30:46.269Z,24.54
2022-09-28T08:33:13.956Z,24.72
2022-09-28T08:35:43.937Z,23.75
2022-09-28T08:38:10.973Z,24.80
2022-09-28T08:40:57.887Z,24.62
2022-09-28T08:43:45.282Z,25.00
2022-09-28T08:46:15.146Z,25.77
2022-09-28T08:49:25.669Z,25.18
2022-09-28T08:51:55.668Z,22.95
2022-09-28T08:54:45.993Z,23.38
2022-09-28T08:57:19.091Z,23.95
2022-09-28T08:59:49.878Z,23.76
2022-09-28T09:02:25.553Z,23.91
2022-09-28T09:04:52.846Z,23.76
2022-09-28T09:07:26.049Z,24.13
2022-09-28T09:10:04.752Z,23.87
2022-09-28T09:13:00.833Z,24.76
2022-09-28T09:16:22.015Z,24.17
2022-09-28T09:19:12.794Z,23.48
2022-09-28T09:21:52.702Z,22.88
2022-09-28T09:24:27.441Z,22.83
2022-09-28T09:27:12.926Z,24.03
2022-09-28T09:30:06.512Z,23.63
2022-09-28T09:33:08.489Z,23.76
2022-09-28T09:35:50.245Z,25.18
2022-09-28T09:38:40.780Z,24.24
2022-09-28T09:41:36.450Z,23.91
2022-09-28T09:44:15.230Z,23.63
2022-09-28T09:46:50.097Z,24.73
2022-09-28T09:49:21.296Z,23.75
2022-09-28T09:51:51.775Z,23.85
2022-09-28T09:54:34.093Z,23.92
2022-09-28T09:57:13.362Z,24.23
2022-09-28T09:59:42.146Z,24.66
2022-09-28T10:02:32.960Z,24.40
2022-09-28T10:05:16.125Z,25.41
2022-09-28T10:07:51.277Z,25.52
2022-09-28T10:10:26.734Z,25.48
2022-09-28T10:12:54.241Z,25.99
2022-09-28T10:15:25.680Z,25.09
2022-09-28T10:17:54.676Z,25.43
2022-09-28T10:20:23.101Z,24.41
2022-09-28T10:22:56.270Z,25.88
2022-09-28T10:25:23.946Z,24.22
2022-09-28T10:27:52.586Z,22.00
2022-09-28T10:30:25.176Z,21.13
2022-09-28T10:32:55.539Z,20.82
2022-09-28T10:35:29.262Z,20.98
2022-09-28T10:37:59.297Z,20.86
2022-09-28T10:40:43.572Z,21.30
2022-09-28T10:43:24.970Z,21.30
2022-09-28T10:46:05.578Z,22.08
2022-09-28T10:48:39.340Z,23.29
2022-09-28T10:51:08.195Z,23.76
2022-09-28T10:53:37.210Z,22.97
2022-09-28T10:56:05.342Z,22.91
2022-09-28T10:58:43.096Z,23.85
2022-09-28T11:01:22.299Z,24.37
2022-09-28T11:04:01.709Z,24.96
2022-09-28T11:06:31.732Z,24.61
2022-09-28T11:09:02.704Z,24.63
2022-09-28T11:11:29.770Z,23.48
2022-09-28T11:14:03.630Z,21.68
2022-09-28T11:16:32.873Z,21.10
2022-09-28T11:19:25.501Z,21.00
2022-09-28T11:21:52.419Z,21.27
2022-09-28T11:24:25.656Z,21.09
2022-09-28T11:27:00.178Z,20.87
2022-09-28T11:29:42.180Z,21.34
2022-09-28T11:32:15.493Z,21.69
2022-09-28T11:34:59.241Z,22.77
2022-09-28T11:37:57.045Z,23.17
2022-09-28T11:40:33.269Z,23.47
2022-09-28T11:43:24.756Z,22.27
2022-09-28T11:45:57.542Z,23.22
2022-09-28T11:48:29.031Z,23.32
2022-09-28T11:51:04.338Z,23.06
2022-09-28T11:53:38.908Z,23.16
2022-09-28T11:56:12.094Z,23.63
2022-09-28T11:58:48.231Z,23.04
2022-09-28T12:01:35.825Z,21.83
2022-09-28T12:04:18.637Z,21.63
2022-09-28T12:06:58.425Z,21.45
2022-09-28T12:09:39.610Z,20.65
2022-09-28T12:12:18.590Z,20.48
2022-09-28T12:14:47.025Z,20.40
2022-09-28T12:17:30.874Z,20.31
2022-09-28T12:20:09.934Z,20.35
2022-09-28T12:22:46.045Z,20.08
2022-09-28T12:25:21.245Z,19.98
2022-09-28T12:28:00.637Z,19.91
2022-09-28T12:30:34.499Z,20.22
2022-09-28T12:33:07.006Z,20.76
2022-09-28T12:36:07.446Z,21.27
2022-09-28T12:39:08.357Z,21.18
2022-09-28T12:41:53.623Z,21.11
2022-09-28T12:44:37.699Z,21.08
2022-09-28T12:47:29.336Z,21.63
2022-09-28T12:53:03.888Z,21.39
2022-09-28T12:55:43.806Z,21.72
2022-09-28T12:58:25.599Z,21.61
2022-09-28T13:01:38.909Z,22.04
2022-09-28T13:04:23.722Z,22.02
2022-09-28T13:07:01.388Z,21.67
2022-09-28T13:09:37.289Z,21.82
2022-09-28T13:12:39.106Z,21.41
2022-09-28T13:15:24.858Z,21.70
2022-09-28T13:18:01.887Z,21.69
2022-09-28T13:21:04.350Z,21.14
2022-09-28T13:23:37.997Z,20.85
2022-09-28T13:26:05.078Z,20.50
2022-09-28T13:28:33.994Z,20.07
2022-09-28T13:31:02.350Z,20.32
2022-09-28T13:33:41.115Z,20.31
2022-09-28T13:36:26.289Z,20.17
2022-09-28T13:38:54.181Z,20.37
2022-09-28T13:41:56.113Z,20.60
2022-09-28T13:44:41.712Z,20.58
2022-09-28T13:47:38.661Z,20.51
2022-09-28T13:50:29.505Z,20.77
2022-09-28T13:53:02.832Z,21.03
2022-09-28T13:55:35.427Z,21.36
2022-09-28T13:58:26.931Z,21.47
2022-09-28T14:01:21.308Z,21.04
2022-09-28T14:04:21.994Z,21.00
2022-09-28T14:06:55.491Z,20.96
2022-09-28T14:09:25.799Z,20.96
2022-09-28T14:12:01.218Z,20.50
2022-09-28T14:14:29.492Z,20.65
2022-09-28T14:17:19.433Z,20.60
2022-09-28T14:19:53.197Z,20.80
2022-09-28T14:22:19.830Z,20.42
2022-09-28T14:25:15.275Z,20.68
2022-09-28T14:28:03.351Z,20.49
2022-09-28T14:30:42.137Z,20.42
2022-09-28T14:33:21.034Z,20.44
2022-09-28T14:36:05.201Z,19.94
2022-09-28T14:39:05.536Z,19.56
2022-09-28T14:41:35.199Z,19.42
2022-09-28T14:44:03.868Z,19.29
2022-09-28T14:46:35.745Z,19.41
2022-09-28T14:49:03.485Z,19.58
2022-09-28T14:51:30.480Z,19.68
2022-09-28T14:54:03.025Z,19.51
2022-09-28T14:56:33.514Z,19.61
2022-09-28T14:59:00.795Z,19.55
2022-09-28T15:01:27.969Z,19.45
2022-09-28T15:03:59.263Z,19.54
2022-09-28T15:06:29.033Z,19.40
2022-09-28T15:08:55.775Z,19.26
2022-09-28T15:11:25.651Z,19.19
2022-09-28T15:14:06.346Z,18.97
2022-09-28T15:16:33.545Z,18.81
2022-09-28T15:19:29.197Z,18.71
2022-09-28T15:21:55.923Z,18.72
2022-09-28T15:24:28.662Z,18.72
2022-09-28T15:26:56.834Z,18.52
2022-09-28T15:29:25.918Z,18.57
2022-09-28T15:31:54.668Z,18.60
2022-09-28T15:34:54.867Z,18.37
2022-09-28T15:37:28.802Z,18.28
2022-09-28T15:39:58.150Z,18.29
2022-09-28T15:42:25.897Z,18.24
2022-09-28T15:45:07.811Z,18.07
2022-09-28T15:47:35.489Z,18.14
2022-09-28T15:50:19.825Z,17.83
2022-09-28T15:52:55.299Z,17.57
2022-09-28T15:55:44.024Z,17.59
2022-09-28T15:58:21.000Z,17.50
2022-09-28T16:00:49.769Z,17.00
2022-09-28T16:03:28.605Z,16.70
2022-09-28T16:05:58.316Z,16.80
2022-09-28T16:08:33.071Z,16.62
2022-09-28T16:11:31.859Z,16.24
2022-09-28T16:14:06.840Z,16.27
2022-09-28T16:16:41.130Z,16.14
2022-09-28T16:19:24.169Z,16.00
2022-09-28T16:21:56.207Z,15.67
2022-09-28T16:24:31.592Z,15.78
2022-09-28T16:27:04.558Z,15.70
2022-09-28T16:29:41.335Z,15.01
2022-09-28T16:32:26.077Z,15.14
2022-09-28T16:35:13.456Z,15.23
2022-09-28T16:37:43.934Z,15.25
2022-09-28T16:40:12.148Z,15.13
2022-09-28T16:42:45.477Z,15.17
2022-09-28T16:45:21.545Z,15.08
2022-09-28T16:47:51.969Z,14.86
2022-09-28T16:50:20.983Z,14.59
2022-09-28T16:53:09.223Z,14.69
2022-09-28T16:55:41.448Z,14.08
2022-09-28T16:58:08.609Z,14.21
2022-09-28T17:00:35.528Z,14.40
2022-09-28T17:03:04.260Z,14.41
2022-09-28T17:05:30.943Z,14.46
2022-09-28T17:08:03.280Z,14.48
2022-09-28T17:10:56.084Z,14.17
2022-09-28T17:13:31.570Z,14.06
2022-09-28T17:16:09.003Z,14.05
2022-09-28T17:18:39.140Z,14.11
2022-09-28T17:21:18.521Z,13.94
2022-09-28T17:23:47.444Z,14.06
2022-09-28T17:26:34.558Z,13.98
2022-09-28T17:29:06.808Z,13.81
2022-09-28T17:31:33.431Z,13.89
2022-09-28T17:34:00.106Z,13.85
2022-09-28T17:36:27.041Z,13.79
2022-09-28T17:38:53.657Z,13.79
2022-09-28T17:41:21.230Z,13.43
2022-09-28T17:43:48.812Z,13.25
2022-09-28T17:46:19.147Z,13.45
2022-09-28T17:48:47.499Z,13.46
2022-09-28T17:51:15.051Z,13.55
2022-09-28T17:53:41.767Z,13.36
2022-09-28T17:56:09.793Z,13.48
2022-09-28T17:58:36.740Z,13.32
2022-09-28T18:01:03.471Z,13.27
2022-09-28T18:03:30.205Z,13.34
2022-09-28T18:06:06.605Z,12.94
2022-09-28T18:08:34.075Z,13.05
2022-09-28T18:11:03.934Z,12.76
2022-09-28T18:13:30.667Z,12.97
2022-09-28T18:15:57.487Z,12.73
2022-09-28T18:18:25.198Z,12.22
2022-09-28T18:20:52.400Z,12.43
2022-09-28T18:23:19.156Z,12.62
2022-09-28T18:25:46.758Z,12.66
2022-09-28T18:28:14.087Z,12.42
2022-09-28T18:30:45.399Z,12.16
2022-09-28T18:33:13.988Z,12.39
2022-09-28T18:35:41.427Z,12.34
2022-09-28T18:38:08.269Z,12.48
2022-09-28T18:40:36.011Z,12.53
2022-09-28T18:43:03.699Z,12.57
2022-09-28T18:45:30.481Z,12.53
2022-09-28T18:47:58.015Z,12.66
2022-09-28T18:50:24.657Z,12.49
2022-09-28T18:52:51.373Z,12.17
2022-09-28T18:55:18.266Z,12.17
2022-09-28T18:57:46.416Z,12.10
2022-09-28T19:00:14.781Z,12.08
2022-09-28T19:02:41.546Z,12.01
2022-09-28T19:05:08.403Z,11.92
2022-09-28T19:07:35.224Z,12.13
2022-09-28T19:10:01.946Z,12.10
2022-09-28T19:12:28.572Z,12.19
2022-09-28T19:14:55.265Z,12.20
2022-09-28T19:17:21.921Z,12.11
2022-09-28T19:19:48.583Z,11.77
2022-09-28T19:22:15.315Z,11.94
2022-09-28T19:24:42.059Z,11.83
2022-09-28T19:27:08.734Z,11.91
2022-09-28T19:29:35.348Z,11.84
2022-09-28T19:32:02.351Z,11.96
2022-09-28T19:34:30.206Z,11.95
2022-09-28T19:36:57.479Z,11.97
2022-09-28T19:39:24.147Z,11.80
2022-09-28T19:41:51.535Z,11.78
2022-09-28T19:44:29.846Z,11.61
2022-09-28T19:47:08.096Z,11.73
2022-09-28T19:49:37.168Z,11.61
2022-09-28T19:52:15.877Z,11.72
2022-09-28T19:54:56.643Z,11.82
2022-09-28T19:57:32.722Z,11.76
2022-09-28T20:00:03.098Z,11.70
2022-09-28T20:02:30.941Z,11.64
2022-09-28T20:04:57.672Z,11.36
2022-09-28T20:07:24.449Z,11.45
2022-09-28T20:09:51.760Z,11.56
2022-09-28T20:12:18.429Z,11.46
2022-09-28T20:14:45.106Z,11.65
2022-09-28T20:17:11.990Z,11.59
2022-09-28T20:19:39.179Z,11.69
2022-09-28T20:22:05.986Z,11.78
2022-09-28T20:24:33.001Z,11.43
2022-09-28T20:27:01.456Z,11.67
2022-09-28T20:29:28.711Z,11.62
2022-09-28T20:31:55.331Z,11.58
2022-09-28T20:34:22.022Z,11.68
2022-09-28T20:36:48.702Z,11.90
2022-09-28T20:39:15.610Z,11.48
2022-09-28T20:41:42.443Z,11.69
2022-09-28T20:44:10.005Z,11.48
2022-09-28T20:46:37.457Z,11.49
2022-09-28T20:49:05.267Z,11.55
2022-09-28T20:51:32.201Z,11.77
2022-09-28T20:53:59.807Z,11.54
2022-09-28T20:56:27.645Z,11.27
2022-09-28T20:58:55.126Z,11.27
2022-09-28T21:01:27.438Z,11.43
2022-09-28T21:03:59.127Z,11.62
2022-09-28T21:06:37.869Z,11.65
2022-09-28T21:09:06.377Z,11.76
2022-09-28T21:11:35.618Z,11.82
2022-09-28T21:14:06.456Z,11.87
2022-09-28T21:16:34.893Z,11.88
2022-09-28T21:19:03.978Z,11.85
2022-09-28T21:21:30.964Z,11.85
2022-09-28T21:23:58.749Z,11.89
2022-09-28T21:26:29.711Z,11.79
2022-09-28T21:29:07.709Z,11.72
2022-09-28T21:31:40.221Z,11.73
2022-09-28T21:34:13.359Z,11.64
2022-09-28T21:36:43.245Z,11.68
2022-09-28T21:39:10.599Z,11.74
2022-09-28T21:41:37.826Z,11.54
2022-09-28T21:44:05.147Z,11.60
2022-09-28T21:46:34.430Z,11.60
2022-09-28T21:49:02.839Z,11.64
2022-09-28T21:51:30.059Z,11.54
2022-09-28T21:53:57.480Z,11.32
2022-09-28T21:56:24.279Z,11.09
2022-09-28T21:58:51.200Z,11.11
2022-09-28T22:01:22.027Z,10.64
2022-09-28T22:03:51.140Z,10.94
2022-09-28T22:06:23.116Z,11.04
2022-09-28T22:08:50.444Z,10.75
2022-09-28T22:11:22.659Z,10.48
2022-09-28T22:13:52.258Z,10.68
2022-09-28T22:16:23.047Z,10.69
2022-09-28T22:18:50.401Z,10.74
2022-09-28T22:21:37.363Z,10.71
2022-09-28T22:24:07.096Z,10.78
2022-09-28T22:26:36.843Z,10.74
2022-09-28T22:29:06.484Z,10.85
2022-09-28T22:31:35.746Z,10.82
2022-09-28T22:34:03.136Z,10.41
2022-09-28T22:36:30.630Z,10.68
2022-09-28T22:38:58.483Z,10.69
2022-09-28T22:41:25.301Z,10.77
2022-09-28T22:43:53.571Z,10.71
2022-09-28T22:46:22.964Z,10.62
2022-09-28T22:48:52.821Z,10.75
2022-09-28T22:51:20.539Z,10.73
2022-09-28T22:53:47.441Z,10.78
2022-09-28T22:56:18.698Z,10.67
2022-09-28T22:58:46.631Z,10.55
2022-09-28T23:01:22.570Z,10.63
2022-09-28T23:03:50.875Z,10.51
2022-09-28T23:06:19.730Z,10.36
2022-09-28T23:08:47.483Z,10.47
2022-09-28T23:11:15.259Z,10.49
2022-09-28T23:13:42.021Z,10.58
2022-09-28T23:16:11.611Z,10.62
2022-09-28T23:18:42.917Z,10.63
2022-09-28T23:21:15.472Z,10.52
2022-09-28T23:23:43.608Z,10.57
2022-09-28T23:26:13.169Z,10.52
2022-09-28T23:28:40.211Z,10.45
2022-09-28T23:31:16.546Z,10.53
2022-09-28T23:33:43.818Z,10.48
2022-09-28T23:36:10.953Z,10.39
2022-09-28T23:38:38.050Z,10.40
2022-09-28T23:41:05.549Z,10.02
2022-09-28T23:43:32.753Z,10.16
2022-09-28T23:45:59.606Z,10.26
2022-09-28T23:48:26.498Z,10.13
2022-09-28T23:50:53.167Z,10.16
2022-09-28T23:53:19.950Z,10.25
2022-09-28T23:55:46.785Z,10.33
2022-09-28T23:58:13.631Z,10.32
